sensor_id;sensor_type;location;lat;lon;timestamp;P1;durP1;ratioP1;P2;durP2;ratioP2
50483;SDS011;36409;52.168;20.878;2023-06-26T00:02:14;8.55;;;6.10;;
50483;SDS011;36409;52.168;20.878;2023-06-26T00:04:44;11.67;;;6.93;;
50483;SDS011;36409;52.168;20.878;2023-06-26T00:07:13;9.93;;;5.83;;
50483;SDS011;36409;52.168;20.878;2023-06-26T00:09:46;9.67;;;6.53;;
50483;SDS011;36409;52.168;20.878;2023-06-26T00:12:15;14.43;;;6.70;;
50483;SDS011;36409;52.168;20.878;2023-06-26T00:14:47;11.07;;;6.07;;
50483;SDS011;36409;52.168;20.878;2023-06-26T00:17:18;8.73;;;6.17;;
50483;SDS011;36409;52.168;20.878;2023-06-26T00:19:47;9.63;;;6.17;;
50483;SDS011;36409;52.168;20.878;2023-06-26T00:22:16;8.60;;;5.90;;
50483;SDS011;36409;52.168;20.878;2023-06-26T00:24:51;10.67;;;6.50;;
50483;SDS011;36409;52.168;20.878;2023-06-26T00:27:20;10.73;;;6.30;;
50483;SDS011;36409;52.168;20.878;2023-06-26T00:29:50;14.70;;;6.43;;
50483;SDS011;36409;52.168;20.878;2023-06-26T00:32:20;10.30;;;6.53;;
50483;SDS011;36409;52.168;20.878;2023-06-26T00:34:49;18.07;;;7.03;;
50483;SDS011;36409;52.168;20.878;2023-06-26T00:37:19;10.20;;;6.43;;
50483;SDS011;36409;52.168;20.878;2023-06-26T00:39:49;9.37;;;6.50;;
50483;SDS011;36409;52.168;20.878;2023-06-26T00:42:19;9.90;;;6.23;;
50483;SDS011;36409;52.168;20.878;2023-06-26T00:44:48;9.20;;;5.55;;
50483;SDS011;36409;52.168;20.878;2023-06-26T00:47:17;9.97;;;5.80;;
50483;SDS011;36409;52.168;20.878;2023-06-26T00:49:46;12.13;;;5.83;;
50483;SDS011;36409;52.168;20.878;2023-06-26T00:52:16;9.57;;;6.47;;
50483;SDS011;36409;52.168;20.878;2023-06-26T00:54:46;8.40;;;5.77;;
50483;SDS011;36409;52.168;20.878;2023-06-26T00:57:17;10.63;;;7.10;;
50483;SDS011;36409;52.168;20.878;2023-06-26T00:59:46;10.00;;;6.40;;
50483;SDS011;36409;52.168;20.878;2023-06-26T01:02:18;11.17;;;6.80;;
50483;SDS011;36409;52.168;20.878;2023-06-26T01:04:48;10.00;;;6.40;;
50483;SDS011;36409;52.168;20.878;2023-06-26T01:07:20;10.10;;;5.97;;
50483;SDS011;36409;52.168;20.878;2023-06-26T01:09:51;11.90;;;6.37;;
50483;SDS011;36409;52.168;20.878;2023-06-26T01:12:20;9.00;;;6.37;;
50483;SDS011;36409;52.168;20.878;2023-06-26T01:14:49;9.73;;;6.80;;
50483;SDS011;36409;52.168;20.878;2023-06-26T01:17:18;13.77;;;7.17;;
50483;SDS011;36409;52.168;20.878;2023-06-26T01:19:48;11.15;;;6.75;;
50483;SDS011;36409;52.168;20.878;2023-06-26T01:22:25;8.50;;;5.93;;
50483;SDS011;36409;52.168;20.878;2023-06-26T01:25:03;9.30;;;6.10;;
50483;SDS011;36409;52.168;20.878;2023-06-26T01:27:45;10.77;;;6.90;;
50483;SDS011;36409;52.168;20.878;2023-06-26T01:30:16;12.87;;;6.70;;
50483;SDS011;36409;52.168;20.878;2023-06-26T01:32:46;10.30;;;6.93;;
50483;SDS011;36409;52.168;20.878;2023-06-26T01:35:17;14.73;;;7.83;;
50483;SDS011;36409;52.168;20.878;2023-06-26T01:37:47;13.77;;;7.07;;
50483;SDS011;36409;52.168;20.878;2023-06-26T01:40:16;10.57;;;7.07;;
50483;SDS011;36409;52.168;20.878;2023-06-26T01:42:46;10.37;;;7.23;;
50483;SDS011;36409;52.168;20.878;2023-06-26T01:45:17;13.75;;;7.85;;
50483;SDS011;36409;52.168;20.878;2023-06-26T01:47:51;11.90;;;6.60;;
50483;SDS011;36409;52.168;20.878;2023-06-26T01:50:24;10.93;;;6.60;;
50483;SDS011;36409;52.168;20.878;2023-06-26T01:52:59;12.33;;;6.53;;
50483;SDS011;36409;52.168;20.878;2023-06-26T01:58:06;10.37;;;6.67;;
50483;SDS011;36409;52.168;20.878;2023-06-26T02:00:38;8.87;;;6.33;;
50483;SDS011;36409;52.168;20.878;2023-06-26T02:03:09;11.10;;;6.40;;
50483;SDS011;36409;52.168;20.878;2023-06-26T02:05:44;10.73;;;6.77;;
50483;SDS011;36409;52.168;20.878;2023-06-26T02:08:14;9.80;;;6.70;;
50483;SDS011;36409;52.168;20.878;2023-06-26T02:10:49;9.23;;;6.63;;
50483;SDS011;36409;52.168;20.878;2023-06-26T02:13:19;11.60;;;6.93;;
50483;SDS011;36409;52.168;20.878;2023-06-26T02:15:48;14.70;;;7.73;;
50483;SDS011;36409;52.168;20.878;2023-06-26T02:18:17;10.00;;;7.03;;
50483;SDS011;36409;52.168;20.878;2023-06-26T02:20:51;12.25;;;7.45;;
50483;SDS011;36409;52.168;20.878;2023-06-26T02:23:22;11.40;;;7.57;;
50483;SDS011;36409;52.168;20.878;2023-06-26T02:25:51;13.60;;;7.40;;
50483;SDS011;36409;52.168;20.878;2023-06-26T02:28:19;12.00;;;7.20;;
50483;SDS011;36409;52.168;20.878;2023-06-26T02:30:51;10.43;;;7.40;;
50483;SDS011;36409;52.168;20.878;2023-06-26T02:33:20;10.27;;;7.07;;
50483;SDS011;36409;52.168;20.878;2023-06-26T02:35:49;9.70;;;7.27;;
50483;SDS011;36409;52.168;20.878;2023-06-26T02:38:19;12.40;;;7.70;;
50483;SDS011;36409;52.168;20.878;2023-06-26T02:40:48;10.67;;;7.90;;
50483;SDS011;36409;52.168;20.878;2023-06-26T02:43:17;12.33;;;7.33;;
50483;SDS011;36409;52.168;20.878;2023-06-26T02:45:46;10.97;;;7.30;;
50483;SDS011;36409;52.168;20.878;2023-06-26T02:48:18;11.63;;;7.73;;
50483;SDS011;36409;52.168;20.878;2023-06-26T02:50:47;14.13;;;8.00;;
50483;SDS011;36409;52.168;20.878;2023-06-26T02:53:17;12.37;;;8.27;;
50483;SDS011;36409;52.168;20.878;2023-06-26T02:55:46;11.20;;;7.47;;
50483;SDS011;36409;52.168;20.878;2023-06-26T02:58:16;9.97;;;7.23;;
50483;SDS011;36409;52.168;20.878;2023-06-26T03:00:45;12.83;;;7.43;;
50483;SDS011;36409;52.168;20.878;2023-06-26T03:03:16;13.40;;;7.43;;
50483;SDS011;36409;52.168;20.878;2023-06-26T03:05:47;11.63;;;7.77;;
50483;SDS011;36409;52.168;20.878;2023-06-26T03:08:16;11.00;;;7.60;;
50483;SDS011;36409;52.168;20.878;2023-06-26T03:10:45;11.40;;;7.40;;
50483;SDS011;36409;52.168;20.878;2023-06-26T03:13:15;11.87;;;7.70;;
50483;SDS011;36409;52.168;20.878;2023-06-26T03:15:46;11.07;;;7.60;;
50483;SDS011;36409;52.168;20.878;2023-06-26T03:18:16;11.17;;;7.70;;
50483;SDS011;36409;52.168;20.878;2023-06-26T03:20:45;11.47;;;7.47;;
50483;SDS011;36409;52.168;20.878;2023-06-26T03:23:15;13.70;;;8.13;;
50483;SDS011;36409;52.168;20.878;2023-06-26T03:25:45;14.13;;;8.30;;
50483;SDS011;36409;52.168;20.878;2023-06-26T03:28:35;10.87;;;7.63;;
50483;SDS011;36409;52.168;20.878;2023-06-26T03:31:04;15.77;;;8.17;;
50483;SDS011;36409;52.168;20.878;2023-06-26T03:33:34;15.87;;;7.87;;
50483;SDS011;36409;52.168;20.878;2023-06-26T03:36:06;11.47;;;7.37;;
50483;SDS011;36409;52.168;20.878;2023-06-26T03:38:38;11.10;;;7.53;;
50483;SDS011;36409;52.168;20.878;2023-06-26T03:41:07;13.67;;;8.27;;
50483;SDS011;36409;52.168;20.878;2023-06-26T03:43:37;12.43;;;8.40;;
50483;SDS011;36409;52.168;20.878;2023-06-26T03:46:21;11.67;;;8.27;;
50483;SDS011;36409;52.168;20.878;2023-06-26T03:48:54;11.30;;;8.00;;
50483;SDS011;36409;52.168;20.878;2023-06-26T03:51:23;16.83;;;7.77;;
50483;SDS011;36409;52.168;20.878;2023-06-26T03:53:55;14.80;;;8.83;;
50483;SDS011;36409;52.168;20.878;2023-06-26T03:56:25;13.63;;;8.40;;
50483;SDS011;36409;52.168;20.878;2023-06-26T03:58:54;11.30;;;8.30;;
50483;SDS011;36409;52.168;20.878;2023-06-26T04:01:23;14.57;;;8.93;;
50483;SDS011;36409;52.168;20.878;2023-06-26T04:03:55;16.90;;;9.43;;
50483;SDS011;36409;52.168;20.878;2023-06-26T04:06:26;12.17;;;8.40;;
50483;SDS011;36409;52.168;20.878;2023-06-26T04:08:56;12.50;;;8.90;;
50483;SDS011;36409;52.168;20.878;2023-06-26T04:11:25;14.63;;;8.67;;
50483;SDS011;36409;52.168;20.878;2023-06-26T04:13:56;19.40;;;9.03;;
50483;SDS011;36409;52.168;20.878;2023-06-26T04:16:25;11.93;;;8.47;;
50483;SDS011;36409;52.168;20.878;2023-06-26T04:18:55;11.87;;;8.43;;
50483;SDS011;36409;52.168;20.878;2023-06-26T04:21:24;12.70;;;8.90;;
50483;SDS011;36409;52.168;20.878;2023-06-26T04:23:53;11.97;;;8.43;;
50483;SDS011;36409;52.168;20.878;2023-06-26T04:26:22;15.77;;;8.67;;
50483;SDS011;36409;52.168;20.878;2023-06-26T04:28:51;12.27;;;8.53;;
50483;SDS011;36409;52.168;20.878;2023-06-26T04:31:20;14.27;;;8.20;;
50483;SDS011;36409;52.168;20.878;2023-06-26T04:33:49;13.43;;;8.60;;
50483;SDS011;36409;52.168;20.878;2023-06-26T04:36:21;13.23;;;9.43;;
50483;SDS011;36409;52.168;20.878;2023-06-26T04:41:24;11.73;;;7.80;;
50483;SDS011;36409;52.168;20.878;2023-06-26T04:43:53;19.90;;;7.93;;
50483;SDS011;36409;52.168;20.878;2023-06-26T04:46:23;11.10;;;8.07;;
50483;SDS011;36409;52.168;20.878;2023-06-26T04:48:52;12.50;;;8.47;;
50483;SDS011;36409;52.168;20.878;2023-06-26T04:51:21;12.27;;;7.40;;
50483;SDS011;36409;52.168;20.878;2023-06-26T04:53:50;11.07;;;7.00;;
50483;SDS011;36409;52.168;20.878;2023-06-26T04:56:19;9.53;;;6.60;;
50483;SDS011;36409;52.168;20.878;2023-06-26T04:58:49;9.53;;;6.80;;
50483;SDS011;36409;52.168;20.878;2023-06-26T05:01:18;8.97;;;6.20;;
50483;SDS011;36409;52.168;20.878;2023-06-26T05:03:47;11.10;;;7.10;;
50483;SDS011;36409;52.168;20.878;2023-06-26T05:06:17;10.57;;;6.57;;
50483;SDS011;36409;52.168;20.878;2023-06-26T05:08:46;10.97;;;6.33;;
50483;SDS011;36409;52.168;20.878;2023-06-26T05:11:15;11.97;;;6.27;;
50483;SDS011;36409;52.168;20.878;2023-06-26T05:13:44;9.40;;;6.17;;
50483;SDS011;36409;52.168;20.878;2023-06-26T05:16:13;10.67;;;5.90;;
50483;SDS011;36409;52.168;20.878;2023-06-26T05:18:43;11.23;;;6.20;;
50483;SDS011;36409;52.168;20.878;2023-06-26T05:21:15;8.65;;;6.10;;
50483;SDS011;36409;52.168;20.878;2023-06-26T05:23:45;8.33;;;6.17;;
50483;SDS011;36409;52.168;20.878;2023-06-26T05:26:16;11.87;;;6.07;;
50483;SDS011;36409;52.168;20.878;2023-06-26T05:28:46;9.17;;;6.40;;
50483;SDS011;36409;52.168;20.878;2023-06-26T05:31:16;9.23;;;6.50;;
50483;SDS011;36409;52.168;20.878;2023-06-26T05:33:46;9.83;;;6.23;;
50483;SDS011;36409;52.168;20.878;2023-06-26T05:36:17;9.37;;;5.80;;
50483;SDS011;36409;52.168;20.878;2023-06-26T05:38:48;8.73;;;6.33;;
50483;SDS011;36409;52.168;20.878;2023-06-26T05:41:18;7.23;;;5.47;;
50483;SDS011;36409;52.168;20.878;2023-06-26T05:43:48;9.37;;;5.57;;
50483;SDS011;36409;52.168;20.878;2023-06-26T05:46:17;10.53;;;6.97;;
50483;SDS011;36409;52.168;20.878;2023-06-26T05:48:46;10.33;;;6.37;;
50483;SDS011;36409;52.168;20.878;2023-06-26T05:51:16;7.83;;;5.07;;
50483;SDS011;36409;52.168;20.878;2023-06-26T05:53:46;7.97;;;5.17;;
50483;SDS011;36409;52.168;20.878;2023-06-26T05:56:17;8.00;;;5.40;;
50483;SDS011;36409;52.168;20.878;2023-06-26T05:58:47;9.93;;;5.17;;
50483;SDS011;36409;52.168;20.878;2023-06-26T06:01:19;12.13;;;5.20;;
50483;SDS011;36409;52.168;20.878;2023-06-26T06:03:49;8.30;;;4.90;;
50483;SDS011;36409;52.168;20.878;2023-06-26T06:06:19;10.10;;;5.63;;
50483;SDS011;36409;52.168;20.878;2023-06-26T06:08:49;8.27;;;4.87;;
50483;SDS011;36409;52.168;20.878;2023-06-26T06:11:19;6.63;;;4.67;;
50483;SDS011;36409;52.168;20.878;2023-06-26T06:13:49;10.37;;;5.17;;
50483;SDS011;36409;52.168;20.878;2023-06-26T06:18:49;7.70;;;5.23;;
50483;SDS011;36409;52.168;20.878;2023-06-26T06:21:18;10.87;;;5.23;;
50483;SDS011;36409;52.168;20.878;2023-06-26T06:23:47;8.33;;;5.23;;
50483;SDS011;36409;52.168;20.878;2023-06-26T06:26:17;8.10;;;5.17;;
50483;SDS011;36409;52.168;20.878;2023-06-26T06:28:46;10.13;;;5.13;;
50483;SDS011;36409;52.168;20.878;2023-06-26T06:31:15;9.53;;;5.00;;
50483;SDS011;36409;52.168;20.878;2023-06-26T06:33:45;11.73;;;4.77;;
50483;SDS011;36409;52.168;20.878;2023-06-26T06:36:14;9.27;;;4.57;;
50483;SDS011;36409;52.168;20.878;2023-06-26T06:38:47;11.27;;;4.67;;
50483;SDS011;36409;52.168;20.878;2023-06-26T06:41:16;12.55;;;4.50;;
50483;SDS011;36409;52.168;20.878;2023-06-26T06:43:47;7.07;;;4.47;;
50483;SDS011;36409;52.168;20.878;2023-06-26T06:46:15;9.70;;;5.07;;
50483;SDS011;36409;52.168;20.878;2023-06-26T06:48:46;9.00;;;4.57;;
50483;SDS011;36409;52.168;20.878;2023-06-26T06:51:15;7.33;;;4.37;;
50483;SDS011;36409;52.168;20.878;2023-06-26T06:53:44;12.70;;;4.90;;
50483;SDS011;36409;52.168;20.878;2023-06-26T06:56:13;8.97;;;4.47;;
50483;SDS011;36409;52.168;20.878;2023-06-26T06:58:42;7.83;;;4.20;;
50483;SDS011;36409;52.168;20.878;2023-06-26T07:01:17;9.40;;;4.30;;
50483;SDS011;36409;52.168;20.878;2023-06-26T07:03:48;8.93;;;4.93;;
50483;SDS011;36409;52.168;20.878;2023-06-26T07:06:17;7.37;;;4.30;;
50483;SDS011;36409;52.168;20.878;2023-06-26T07:08:47;8.93;;;4.60;;
50483;SDS011;36409;52.168;20.878;2023-06-26T07:11:16;8.10;;;4.80;;
50483;SDS011;36409;52.168;20.878;2023-06-26T07:13:47;9.35;;;4.60;;
50483;SDS011;36409;52.168;20.878;2023-06-26T07:16:16;8.80;;;3.97;;
50483;SDS011;36409;52.168;20.878;2023-06-26T07:18:46;6.93;;;3.93;;
50483;SDS011;36409;52.168;20.878;2023-06-26T07:21:16;10.37;;;4.50;;
50483;SDS011;36409;52.168;20.878;2023-06-26T07:23:45;7.60;;;4.37;;
50483;SDS011;36409;52.168;20.878;2023-06-26T07:26:14;8.40;;;4.90;;
50483;SDS011;36409;52.168;20.878;2023-06-26T07:28:44;8.30;;;4.20;;
50483;SDS011;36409;52.168;20.878;2023-06-26T07:31:13;10.10;;;4.70;;
50483;SDS011;36409;52.168;20.878;2023-06-26T07:33:44;9.50;;;4.97;;
50483;SDS011;36409;52.168;20.878;2023-06-26T07:36:14;13.15;;;5.10;;
50483;SDS011;36409;52.168;20.878;2023-06-26T07:38:44;10.27;;;4.20;;
50483;SDS011;36409;52.168;20.878;2023-06-26T07:41:13;8.07;;;4.40;;
50483;SDS011;36409;52.168;20.878;2023-06-26T07:43:44;10.07;;;5.00;;
50483;SDS011;36409;52.168;20.878;2023-06-26T07:46:15;9.87;;;4.73;;
50483;SDS011;36409;52.168;20.878;2023-06-26T07:48:45;8.27;;;5.00;;
50483;SDS011;36409;52.168;20.878;2023-06-26T07:51:14;7.53;;;4.30;;
50483;SDS011;36409;52.168;20.878;2023-06-26T07:53:45;12.23;;;4.00;;
50483;SDS011;36409;52.168;20.878;2023-06-26T07:56:14;7.13;;;4.10;;
50483;SDS011;36409;52.168;20.878;2023-06-26T07:58:45;7.43;;;4.30;;
50483;SDS011;36409;52.168;20.878;2023-06-26T08:01:14;7.57;;;4.57;;
50483;SDS011;36409;52.168;20.878;2023-06-26T08:03:44;7.00;;;3.97;;
50483;SDS011;36409;52.168;20.878;2023-06-26T08:06:14;6.10;;;4.27;;
50483;SDS011;36409;52.168;20.878;2023-06-26T08:08:44;7.43;;;3.83;;
50483;SDS011;36409;52.168;20.878;2023-06-26T08:11:13;9.10;;;4.65;;
50483;SDS011;36409;52.168;20.878;2023-06-26T08:13:45;8.80;;;4.80;;
50483;SDS011;36409;52.168;20.878;2023-06-26T08:16:14;8.60;;;4.63;;
50483;SDS011;36409;52.168;20.878;2023-06-26T08:18:45;7.23;;;4.00;;
50483;SDS011;36409;52.168;20.878;2023-06-26T08:21:14;7.60;;;4.60;;
50483;SDS011;36409;52.168;20.878;2023-06-26T08:23:46;5.50;;;3.90;;
50483;SDS011;36409;52.168;20.878;2023-06-26T08:26:15;8.20;;;4.07;;
50483;SDS011;36409;52.168;20.878;2023-06-26T08:28:44;6.43;;;3.90;;
50483;SDS011;36409;52.168;20.878;2023-06-26T08:31:13;6.97;;;4.10;;
50483;SDS011;36409;52.168;20.878;2023-06-26T08:33:44;6.30;;;4.00;;
50483;SDS011;36409;52.168;20.878;2023-06-26T08:36:14;6.03;;;3.97;;
50483;SDS011;36409;52.168;20.878;2023-06-26T08:38:45;7.73;;;3.83;;
50483;SDS011;36409;52.168;20.878;2023-06-26T08:41:14;6.90;;;3.87;;
50483;SDS011;36409;52.168;20.878;2023-06-26T08:43:45;8.70;;;4.73;;
50483;SDS011;36409;52.168;20.878;2023-06-26T08:46:15;6.43;;;3.97;;
50483;SDS011;36409;52.168;20.878;2023-06-26T08:48:49;7.43;;;3.97;;
50483;SDS011;36409;52.168;20.878;2023-06-26T08:51:24;5.50;;;3.90;;
50483;SDS011;36409;52.168;20.878;2023-06-26T08:53:57;11.00;;;3.00;;
50483;SDS011;36409;52.168;20.878;2023-06-26T08:56:31;8.23;;;3.55;;
50483;SDS011;36409;52.168;20.878;2023-06-26T08:59:08;8.10;;;3.70;;
50483;SDS011;36409;52.168;20.878;2023-06-26T09:01:38;6.33;;;3.47;;
50483;SDS011;36409;52.168;20.878;2023-06-26T09:04:07;5.30;;;3.13;;
50483;SDS011;36409;52.168;20.878;2023-06-26T09:06:37;6.20;;;3.87;;
50483;SDS011;36409;52.168;20.878;2023-06-26T09:09:06;6.17;;;3.57;;
50483;SDS011;36409;52.168;20.878;2023-06-26T09:11:35;5.60;;;3.27;;
50483;SDS011;36409;52.168;20.878;2023-06-26T09:14:04;7.37;;;3.53;;
50483;SDS011;36409;52.168;20.878;2023-06-26T09:16:39;5.70;;;2.97;;
50483;SDS011;36409;52.168;20.878;2023-06-26T09:19:12;5.50;;;3.33;;
50483;SDS011;36409;52.168;20.878;2023-06-26T09:21:42;5.20;;;3.40;;
50483;SDS011;36409;52.168;20.878;2023-06-26T09:24:11;8.70;;;3.00;;
50483;SDS011;36409;52.168;20.878;2023-06-26T09:26:41;5.75;;;3.90;;
50483;SDS011;36409;52.168;20.878;2023-06-26T09:29:11;7.90;;;3.20;;
50483;SDS011;36409;52.168;20.878;2023-06-26T09:31:41;6.97;;;3.43;;
50483;SDS011;36409;52.168;20.878;2023-06-26T09:34:11;7.57;;;3.37;;
50483;SDS011;36409;52.168;20.878;2023-06-26T09:36:40;4.10;;;2.93;;
50483;SDS011;36409;52.168;20.878;2023-06-26T09:39:13;6.47;;;3.50;;
50483;SDS011;36409;52.168;20.878;2023-06-26T09:41:44;6.57;;;4.00;;
50483;SDS011;36409;52.168;20.878;2023-06-26T09:44:14;5.37;;;3.73;;
50483;SDS011;36409;52.168;20.878;2023-06-26T09:46:45;5.80;;;3.57;;
50483;SDS011;36409;52.168;20.878;2023-06-26T09:49:14;5.00;;;3.10;;
50483;SDS011;36409;52.168;20.878;2023-06-26T09:54:19;5.53;;;3.30;;
50483;SDS011;36409;52.168;20.878;2023-06-26T09:56:51;5.90;;;3.47;;
50483;SDS011;36409;52.168;20.878;2023-06-26T09:59:23;5.97;;;3.33;;
50483;SDS011;36409;52.168;20.878;2023-06-26T10:01:58;5.07;;;3.20;;
50483;SDS011;36409;52.168;20.878;2023-06-26T10:04:28;6.73;;;3.40;;
50483;SDS011;36409;52.168;20.878;2023-06-26T10:06:58;7.63;;;3.27;;
50483;SDS011;36409;52.168;20.878;2023-06-26T10:09:29;6.63;;;3.43;;
50483;SDS011;36409;52.168;20.878;2023-06-26T10:12:01;5.50;;;3.17;;
50483;SDS011;36409;52.168;20.878;2023-06-26T10:14:35;4.93;;;3.10;;
50483;SDS011;36409;52.168;20.878;2023-06-26T10:17:07;4.10;;;2.87;;
50483;SDS011;36409;52.168;20.878;2023-06-26T10:19:41;4.53;;;3.13;;
50483;SDS011;36409;52.168;20.878;2023-06-26T10:22:15;5.30;;;3.07;;
50483;SDS011;36409;52.168;20.878;2023-06-26T10:24:46;6.53;;;3.55;;
50483;SDS011;36409;52.168;20.878;2023-06-26T10:27:17;4.47;;;2.97;;
50483;SDS011;36409;52.168;20.878;2023-06-26T10:29:48;5.43;;;3.23;;
50483;SDS011;36409;52.168;20.878;2023-06-26T10:32:20;5.23;;;3.30;;
50483;SDS011;36409;52.168;20.878;2023-06-26T10:34:51;6.07;;;3.77;;
50483;SDS011;36409;52.168;20.878;2023-06-26T10:37:21;7.27;;;3.17;;
50483;SDS011;36409;52.168;20.878;2023-06-26T10:40:12;4.77;;;3.07;;
50483;SDS011;36409;52.168;20.878;2023-06-26T10:42:42;5.17;;;3.43;;
50483;SDS011;36409;52.168;20.878;2023-06-26T10:45:14;6.00;;;3.20;;
50483;SDS011;36409;52.168;20.878;2023-06-26T10:47:46;5.05;;;3.10;;
50483;SDS011;36409;52.168;20.878;2023-06-26T10:50:24;4.50;;;3.00;;
50483;SDS011;36409;52.168;20.878;2023-06-26T10:55:50;5.17;;;2.90;;
50483;SDS011;36409;52.168;20.878;2023-06-26T10:58:29;4.93;;;3.00;;
50483;SDS011;36409;52.168;20.878;2023-06-26T11:01:14;5.33;;;3.00;;
50483;SDS011;36409;52.168;20.878;2023-06-26T11:04:03;5.80;;;3.47;;
50483;SDS011;36409;52.168;20.878;2023-06-26T11:06:33;5.07;;;3.00;;
50483;SDS011;36409;52.168;20.878;2023-06-26T11:09:10;4.80;;;2.83;;
50483;SDS011;36409;52.168;20.878;2023-06-26T11:11:57;8.10;;;2.80;;
50483;SDS011;36409;52.168;20.878;2023-06-26T11:14:29;4.30;;;2.90;;
50483;SDS011;36409;52.168;20.878;2023-06-26T11:17:01;7.47;;;3.37;;
50483;SDS011;36409;52.168;20.878;2023-06-26T11:19:31;6.07;;;3.10;;
50483;SDS011;36409;52.168;20.878;2023-06-26T11:22:01;4.00;;;2.67;;
50483;SDS011;36409;52.168;20.878;2023-06-26T11:24:32;5.63;;;3.00;;
50483;SDS011;36409;52.168;20.878;2023-06-26T11:27:02;5.17;;;2.97;;
50483;SDS011;36409;52.168;20.878;2023-06-26T11:29:33;5.80;;;3.10;;
50483;SDS011;36409;52.168;20.878;2023-06-26T11:32:03;5.10;;;3.00;;
50483;SDS011;36409;52.168;20.878;2023-06-26T11:34:34;4.37;;;2.77;;
50483;SDS011;36409;52.168;20.878;2023-06-26T11:37:03;6.00;;;2.83;;
50483;SDS011;36409;52.168;20.878;2023-06-26T11:39:32;5.17;;;2.83;;
50483;SDS011;36409;52.168;20.878;2023-06-26T11:42:01;7.00;;;3.07;;
50483;SDS011;36409;52.168;20.878;2023-06-26T11:44:30;6.37;;;3.20;;
50483;SDS011;36409;52.168;20.878;2023-06-26T11:46:59;4.80;;;3.10;;
50483;SDS011;36409;52.168;20.878;2023-06-26T11:49:28;6.10;;;3.50;;
50483;SDS011;36409;52.168;20.878;2023-06-26T11:51:58;5.60;;;3.47;;
50483;SDS011;36409;52.168;20.878;2023-06-26T11:54:27;5.40;;;3.00;;
50483;SDS011;36409;52.168;20.878;2023-06-26T11:56:56;6.23;;;2.83;;
50483;SDS011;36409;52.168;20.878;2023-06-26T11:59:32;5.23;;;2.80;;
50483;SDS011;36409;52.168;20.878;2023-06-26T12:02:06;4.33;;;2.83;;
50483;SDS011;36409;52.168;20.878;2023-06-26T12:04:37;6.77;;;2.90;;
50483;SDS011;36409;52.168;20.878;2023-06-26T12:07:07;4.10;;;2.47;;
50483;SDS011;36409;52.168;20.878;2023-06-26T12:09:41;3.60;;;2.50;;
50483;SDS011;36409;52.168;20.878;2023-06-26T12:12:16;4.80;;;2.57;;
50483;SDS011;36409;52.168;20.878;2023-06-26T12:14:47;5.70;;;2.60;;
50483;SDS011;36409;52.168;20.878;2023-06-26T12:17:16;5.50;;;2.80;;
50483;SDS011;36409;52.168;20.878;2023-06-26T12:19:46;5.37;;;2.73;;
50483;SDS011;36409;52.168;20.878;2023-06-26T12:22:16;3.93;;;2.70;;
50483;SDS011;36409;52.168;20.878;2023-06-26T12:24:46;6.40;;;3.17;;
50483;SDS011;36409;52.168;20.878;2023-06-26T12:27:16;4.60;;;2.73;;
50483;SDS011;36409;52.168;20.878;2023-06-26T12:29:50;4.10;;;2.60;;
50483;SDS011;36409;52.168;20.878;2023-06-26T12:32:20;6.17;;;2.73;;
50483;SDS011;36409;52.168;20.878;2023-06-26T12:34:51;4.85;;;2.60;;
50483;SDS011;36409;52.168;20.878;2023-06-26T12:37:20;4.73;;;2.80;;
50483;SDS011;36409;52.168;20.878;2023-06-26T12:39:49;4.50;;;2.37;;
50483;SDS011;36409;52.168;20.878;2023-06-26T12:42:20;4.00;;;2.80;;
50483;SDS011;36409;52.168;20.878;2023-06-26T12:44:51;3.73;;;2.57;;
50483;SDS011;36409;52.168;20.878;2023-06-26T12:47:24;4.40;;;2.90;;
50483;SDS011;36409;52.168;20.878;2023-06-26T12:49:55;5.03;;;2.90;;
50483;SDS011;36409;52.168;20.878;2023-06-26T12:52:25;4.97;;;2.90;;
50483;SDS011;36409;52.168;20.878;2023-06-26T12:54:54;4.60;;;2.60;;
50483;SDS011;36409;52.168;20.878;2023-06-26T12:57:24;4.43;;;3.00;;
50483;SDS011;36409;52.168;20.878;2023-06-26T12:59:53;4.90;;;2.55;;
50483;SDS011;36409;52.168;20.878;2023-06-26T13:02:22;7.30;;;2.90;;
50483;SDS011;36409;52.168;20.878;2023-06-26T13:04:52;4.93;;;2.70;;
50483;SDS011;36409;52.168;20.878;2023-06-26T13:07:21;5.63;;;2.53;;
50483;SDS011;36409;52.168;20.878;2023-06-26T13:09:52;3.77;;;2.70;;
50483;SDS011;36409;52.168;20.878;2023-06-26T13:12:24;5.43;;;3.00;;
50483;SDS011;36409;52.168;20.878;2023-06-26T13:14:53;6.33;;;3.00;;
50483;SDS011;36409;52.168;20.878;2023-06-26T13:17:22;5.47;;;3.00;;
50483;SDS011;36409;52.168;20.878;2023-06-26T13:19:51;4.40;;;2.87;;
50483;SDS011;36409;52.168;20.878;2023-06-26T13:22:20;5.00;;;2.70;;
50483;SDS011;36409;52.168;20.878;2023-06-26T13:24:49;4.53;;;2.80;;
50483;SDS011;36409;52.168;20.878;2023-06-26T13:27:18;7.47;;;3.13;;
50483;SDS011;36409;52.168;20.878;2023-06-26T13:29:47;4.07;;;2.60;;
50483;SDS011;36409;52.168;20.878;2023-06-26T13:32:16;4.57;;;3.00;;
50483;SDS011;36409;52.168;20.878;2023-06-26T13:34:45;6.90;;;3.07;;
50483;SDS011;36409;52.168;20.878;2023-06-26T13:37:15;5.93;;;2.97;;
50483;SDS011;36409;52.168;20.878;2023-06-26T13:39:44;5.45;;;3.20;;
50483;SDS011;36409;52.168;20.878;2023-06-26T13:42:17;5.83;;;3.27;;
50483;SDS011;36409;52.168;20.878;2023-06-26T13:44:46;4.73;;;2.80;;
50483;SDS011;36409;52.168;20.878;2023-06-26T13:49:57;8.27;;;2.97;;
50483;SDS011;36409;52.168;20.878;2023-06-26T13:52:26;4.30;;;2.63;;
50483;SDS011;36409;52.168;20.878;2023-06-26T13:54:55;4.77;;;3.00;;
50483;SDS011;36409;52.168;20.878;2023-06-26T13:57:24;3.73;;;2.83;;
50483;SDS011;36409;52.168;20.878;2023-06-26T13:59:55;5.23;;;3.07;;
50483;SDS011;36409;52.168;20.878;2023-06-26T14:02:25;4.67;;;2.90;;
50483;SDS011;36409;52.168;20.878;2023-06-26T14:04:55;5.20;;;2.90;;
50483;SDS011;36409;52.168;20.878;2023-06-26T14:07:24;5.97;;;2.87;;
50483;SDS011;36409;52.168;20.878;2023-06-26T14:09:53;4.47;;;2.70;;
50483;SDS011;36409;52.168;20.878;2023-06-26T14:12:22;4.97;;;3.10;;
50483;SDS011;36409;52.168;20.878;2023-06-26T14:14:52;5.57;;;3.17;;
50483;SDS011;36409;52.168;20.878;2023-06-26T14:17:21;5.63;;;3.27;;
50483;SDS011;36409;52.168;20.878;2023-06-26T14:19:53;5.47;;;2.87;;
50483;SDS011;36409;52.168;20.878;2023-06-26T14:22:22;6.03;;;2.90;;
50483;SDS011;36409;52.168;20.878;2023-06-26T14:24:51;5.03;;;3.03;;
50483;SDS011;36409;52.168;20.878;2023-06-26T14:27:20;5.93;;;3.30;;
50483;SDS011;36409;52.168;20.878;2023-06-26T14:29:49;7.80;;;3.30;;
50483;SDS011;36409;52.168;20.878;2023-06-26T14:32:18;4.60;;;2.70;;
50483;SDS011;36409;52.168;20.878;2023-06-26T14:34:47;5.53;;;3.10;;
50483;SDS011;36409;52.168;20.878;2023-06-26T14:37:16;7.40;;;3.10;;
50483;SDS011;36409;52.168;20.878;2023-06-26T14:39:46;5.27;;;3.30;;
50483;SDS011;36409;52.168;20.878;2023-06-26T14:42:15;6.27;;;3.30;;
50483;SDS011;36409;52.168;20.878;2023-06-26T14:44:46;6.23;;;3.00;;
50483;SDS011;36409;52.168;20.878;2023-06-26T14:47:18;3.85;;;2.77;;
50483;SDS011;36409;52.168;20.878;2023-06-26T14:49:47;4.90;;;2.90;;
50483;SDS011;36409;52.168;20.878;2023-06-26T14:52:16;4.10;;;2.70;;
50483;SDS011;36409;52.168;20.878;2023-06-26T14:54:47;5.00;;;3.20;;
50483;SDS011;36409;52.168;20.878;2023-06-26T14:57:16;6.87;;;3.17;;
50483;SDS011;36409;52.168;20.878;2023-06-26T14:59:46;4.83;;;3.30;;
50483;SDS011;36409;52.168;20.878;2023-06-26T15:02:15;5.60;;;3.30;;
50483;SDS011;36409;52.168;20.878;2023-06-26T15:04:44;6.23;;;3.17;;
50483;SDS011;36409;52.168;20.878;2023-06-26T15:07:13;5.17;;;2.90;;